Latest Coastal Weather Observations for Lihou Reef Lighthouse

IDQ60701

Issued at 12:35 pm EST Thursday 24 April 2014 (issued every 10 minutes, with the page automatically refreshed every 10 minutes)

About coastal observations | Map of coastal stations | Coastal observations for QLD | Marine services | Other Formats
Station Details ID: 200880 Name: LIHOU REEF LIGHTHOUSE Lat: -17.13 Lon: 152.15 Height: 0.0 m
Data from the previous 72 hours. | See also: Recent months for locations in Queensland
Date/Time
EST
Temp

°C
Wind Pressure Rain
since 9am
mm
Weather Cloud Vis
km
Sea
Height
m
Swell
Dir
 
Speed
knots
Gust
knots
hPa Trend Height
m
Period
s
Dir
24/12:30pm 25.9 ESE 21 25 1010.3 - - - - - - - - -
24/12:00pm 26.2 ESE 24 29 1010.3 - - - - - - - - -
24/11:30am 26.3 ESE 23 30 1010.9 - - - - - - - - -
24/11:00am 25.7 ESE 25 29 1011.0 - - - - - - - - -
24/10:30am 25.1 ESE 27 32 1011.5 - - - - - - - - -
24/10:08am 24.7 ESE 15 28 1012.0 - - - - - - - - -
24/10:00am 24.0 S 7 13 1012.4 - - - - - - - - -
24/09:55am 24.4 ESE 15 23 1012.4 - - - - - - - - -
24/09:30am 24.9 S 27 40 1012.2 - - - - - - - - -
24/09:26am 24.8 S 29 40 1011.9 - - - - - - - - -
24/09:21am 24.9 SSE 31 40 1011.5 - - - - - - - - -
24/09:12am 25.7 SSE 17 28 1012.1 - - - - - - - - -
24/09:00am 27.8 E 10 13 1012.4 - - - - - - - - -
24/08:30am 28.0 E 11 13 1012.2 - - - - - - - - -
24/08:00am 28.1 E 9 11 1011.9 - - - - - - - - -
24/07:30am 27.9 E 12 14 1011.4 - - - - - - - - -
24/07:00am 27.6 E 10 13 1011.1 - - - - - - - - -
24/06:30am 27.6 E 9 11 1010.9 - - - - - - - - -
24/06:00am 27.5 E 8 10 1010.2 - - - - - - - - -
24/05:30am 27.5 E 10 11 1010.3 - - - - - - - - -
24/05:00am 27.5 E 8 10 1010.0 - - - - - - - - -
24/04:30am 27.5 ENE 9 10 1009.8 - - - - - - - - -
24/04:00am 27.5 ENE 9 10 1009.5 - - - - - - - - -
24/03:30am 27.4 ENE 10 11 1009.4 - - - - - - - - -
24/03:00am 27.5 ENE 10 11 1009.4 - - - - - - - - -
24/02:30am 27.5 NE 11 13 1009.4 - - - - - - - - -
24/02:00am 27.4 NE 11 13 1009.5 - - - - - - - - -
24/01:30am 27.5 ENE 11 13 1009.9 - - - - - - - - -
24/01:00am 27.5 ENE 11 13 1010.2 - - - - - - - - -
24/12:30am 27.6 ENE 12 14 1010.7 - - - - - - - - -
24/12:00am 27.6 ENE 12 14 1011.1 - - - - - - - - -
 
Date/Time
EST
Temp

°C
Wind Pressure Rain
since 9am
mm
Weather Cloud Vis
km
Sea
Height
m
Swell
Dir
 
Speed
knots
Gust
knots
hPa Trend Height
m
Period
s
Dir
23/11:30pm 27.8 ENE 14 16 1011.6 - - - - - - - - -
23/11:00pm 27.7 ENE 14 16 1011.5 - - - - - - - - -
23/10:30pm 27.6 ENE 14 15 1011.9 - - - - - - - - -
23/10:00pm 27.8 ENE 14 16 1011.8 - - - - - - - - -
23/09:30pm 27.7 ENE 14 16 1011.8 - - - - - - - - -
23/09:00pm 27.6 E 14 17 1011.4 - - - - - - - - -
23/08:30pm 26.1 ESE 15 18 1011.4 - - - - - - - - -
23/08:00pm 26.1 ESE 16 19 1011.1 - - - - - - - - -
23/07:30pm 25.8 ESE 16 18 1011.1 - - - - - - - - -
23/07:00pm 27.5 ESE 9 11 1010.9 - - - - - - - - -
23/06:30pm 27.4 E 11 13 1010.8 - - - - - - - - -
23/06:00pm 27.7 E 12 14 1010.3 - - - - - - - - -
23/05:30pm 27.5 E 13 15 1010.1 - - - - - - - - -
23/05:00pm 27.1 ESE 10 14 1009.9 - - - - - - - - -
23/04:30pm 27.7 E 12 14 1009.8 - - - - - - - - -
23/04:00pm 27.6 E 13 15 1009.6 - - - - - - - - -
23/03:30pm 27.7 E 11 13 1009.6 - - - - - - - - -
23/03:00pm 27.6 E 13 15 1009.4 - - - - - - - - -
23/02:30pm 27.8 E 12 14 1009.8 - - - - - - - - -
23/02:00pm 27.7 E 12 15 1009.7 - - - - - - - - -
23/01:30pm 27.7 E 12 14 1010.2 - - - - - - - - -
23/01:00pm 27.9 E 11 13 1010.6 - - - - - - - - -
23/12:30pm 27.9 ESE 13 15 1011.0 - - - - - - - - -
23/12:00pm 27.9 E 11 12 1011.4 - - - - - - - - -
23/11:30am 27.6 E 12 15 1011.8 - - - - - - - - -
23/11:00am 28.1 ESE 12 15 1012.2 - - - - - - - - -
23/10:30am 28.3 ESE 12 14 1012.5 - - - - - - - - -
23/10:00am 28.1 E 11 13 1012.7 - - - - - - - - -
23/09:30am 27.9 E 12 14 1012.6 - - - - - - - - -
23/09:00am 27.7 E 13 15 1012.6 - - - - - - - - -
23/08:30am 28.0 E 13 15 1012.6 - - - - - - - - -
23/08:00am 27.7 E 13 14 1012.5 - - - - - - - - -
23/07:30am 27.6 E 11 12 1012.5 - - - - - - - - -
23/07:00am 27.4 E 13 15 1012.3 - - - - - - - - -
23/06:30am 26.5 E 11 14 1012.3 - - - - - - - - -
23/06:00am 27.1 E 11 13 1012.0 - - - - - - - - -
23/05:30am 26.9 E 12 13 1012.0 - - - - - - - - -
23/05:00am 27.0 E 11 13 1011.6 - - - - - - - - -
23/04:30am 27.0 E 9 11 1011.5 - - - - - - - - -
23/04:00am 27.1 E 11 12 1011.2 - - - - - - - - -
23/03:30am 26.9 E 9 11 1011.3 - - - - - - - - -
23/03:00am 27.2 E 10 11 1011.3 - - - - - - - - -
23/02:30am 27.2 E 11 12 1011.4 - - - - - - - - -
23/02:00am 27.1 E 10 12 1011.4 - - - - - - - - -
23/01:30am 27.1 E 10 13 1011.8 - - - - - - - - -
23/01:00am 27.2 E 12 13 1012.0 - - - - - - - - -
23/12:30am 27.2 E 12 14 1012.4 - - - - - - - - -
23/12:00am 27.1 E 12 15 1012.7 - - - - - - - - -
 
Date/Time
EST
Temp

°C
Wind Pressure Rain
since 9am
mm
Weather Cloud Vis
km
Sea
Height
m
Swell
Dir
 
Speed
knots
Gust
knots
hPa Trend Height
m
Period
s
Dir
22/11:30pm 27.1 ESE 12 13 1013.1 - - - - - - - - -
22/11:00pm 27.4 ESE 11 14 1013.3 - - - - - - - - -
22/10:30pm 27.3 E 12 14 1013.7 - - - - - - - - -
22/10:00pm 27.2 ESE 13 15 1013.6 - - - - - - - - -
22/09:30pm 27.3 ESE 13 15 1013.7 - - - - - - - - -
22/09:00pm 27.4 ESE 14 16 1013.6 - - - - - - - - -
22/08:30pm 27.1 SE 15 18 1013.4 - - - - - - - - -
22/08:00pm 27.0 SE 16 19 1013.0 - - - - - - - - -
22/07:30pm 26.9 SE 17 20 1012.7 - - - - - - - - -
22/07:00pm 27.2 SE 17 20 1012.3 - - - - - - - - -
22/06:30pm 27.3 SE 17 20 1012.4 - - - - - - - - -
22/06:00pm 27.2 SE 17 20 1012.1 - - - - - - - - -
22/05:30pm 27.3 SE 17 19 1012.1 - - - - - - - - -
22/05:00pm 27.1 SE 16 19 1011.7 - - - - - - - - -
22/04:30pm 26.9 SE 17 20 1011.7 - - - - - - - - -
22/04:00pm 26.7 SE 17 20 1011.6 - - - - - - - - -
22/03:30pm 27.1 SE 15 19 1011.7 - - - - - - - - -
22/03:00pm 27.2 SE 16 20 1011.5 - - - - - - - - -
22/02:30pm 27.3 SE 16 19 1011.8 - - - - - - - - -
22/02:00pm 27.1 SE 17 20 1011.7 - - - - - - - - -
22/01:30pm 26.8 SE 17 21 1012.1 - - - - - - - - -
22/01:00pm 26.2 ESE 18 24 1012.3 - - - - - - - - -
22/12:30pm 27.1 SE 12 17 1012.9 - - - - - - - - -
22/12:00pm 26.1 SE 17 23 1013.2 - - - - - - - - -
22/11:30am 27.6 SE 17 20 1013.6 - - - - - - - - -
22/11:00am 27.3 SE 16 20 1013.9 - - - - - - - - -
22/10:30am 27.5 SE 16 19 1014.7 - - - - - - - - -
22/10:00am 27.3 SE 17 20 1014.8 - - - - - - - - -
22/09:30am 27.3 SE 15 18 1015.4 - - - - - - - - -
22/09:00am 27.3 SE 16 19 1015.2 - - - - - - - - -
22/08:30am 27.2 ESE 18 21 1015.0 - - - - - - - - -
22/08:00am 27.1 ESE 18 22 1014.6 - - - - - - - - -
22/07:30am 27.3 ESE 18 21 1014.3 - - - - - - - - -
22/07:00am 27.1 ESE 17 20 1014.4 - - - - - - - - -
22/06:30am 27.0 SE 17 20 1014.3 - - - - - - - - -
22/06:00am 26.9 SE 18 21 1013.8 - - - - - - - - -
22/05:30am 26.8 ESE 16 20 1013.8 - - - - - - - - -
22/05:00am 26.7 SE 18 21 1013.5 - - - - - - - - -
22/04:30am 26.8 ESE 17 20 1013.5 - - - - - - - - -
22/04:00am 26.8 ESE 17 20 1013.4 - - - - - - - - -
22/03:30am 26.6 SE 14 18 1013.4 - - - - - - - - -
22/03:00am 26.3 SE 12 16 1013.4 - - - - - - - - -
22/02:30am 26.0 SE 10 12 1013.8 - - - - - - - - -
22/02:00am 25.6 ESE 13 16 1013.7 - - - - - - - - -
22/01:30am 26.3 SE 14 16 1014.1 - - - - - - - - -
22/01:00am 26.1 ESE 14 17 1014.1 - - - - - - - - -
22/12:30am 25.9 ESE 15 19 1014.6 - - - - - - - - -
22/12:00am 24.8 ESE 16 22 1015.0 - - - - - - - - -
 
Date/Time
EST
Temp

°C
Wind Pressure Rain
since 9am
mm
Weather Cloud Vis
km
Sea
Height
m
Swell
Dir
 
Speed
knots
Gust
knots
hPa Trend Height
m
Period
s
Dir
21/11:30pm 25.3 ESE 12 13 1015.5 - - - - - - - - -
21/11:00pm 25.6 ESE 15 18 1015.4 - - - - - - - - -
21/10:30pm 25.9 SE 16 18 1015.6 - - - - - - - - -
21/10:00pm 25.1 SE 15 20 1015.6 - - - - - - - - -
21/09:30pm 26.2 SE 18 24 1015.8 - - - - - - - - -
21/09:00pm 26.8 SE 17 21 1015.5 - - - - - - - - -
21/08:30pm 26.6 SE 16 19 1015.7 - - - - - - - - -
21/08:00pm 26.7 SE 17 20 1015.6 - - - - - - - - -
21/07:30pm 26.7 SE 17 19 1015.6 - - - - - - - - -
21/07:00pm 26.6 SE 17 20 1015.0 - - - - - - - - -
21/06:30pm 26.5 SE 17 20 1014.7 - - - - - - - - -
21/06:00pm 26.6 SE 18 22 1014.3 - - - - - - - - -
21/05:30pm 26.6 SE 18 22 1014.0 - - - - - - - - -
21/05:00pm 26.6 SE 18 22 1013.7 - - - - - - - - -
21/04:30pm 26.6 SE 17 21 1013.8 - - - - - - - - -
21/04:00pm 26.6 SE 16 18 1013.5 - - - - - - - - -
21/03:30pm 26.9 SE 16 18 1013.4 - - - - - - - - -
21/03:00pm 27.0 ESE 16 19 1013.3 - - - - - - - - -
21/02:30pm 26.7 ESE 16 20 1013.2 - - - - - - - - -
21/02:00pm 26.7 ESE 17 21 1013.1 - - - - - - - - -
21/01:30pm 26.9 ESE 17 21 1013.3 - - - - - - - - -
21/01:00pm 26.7 ESE 18 21 1013.5 - - - - - - - - -

Other Formats:

Comma delimited format used in spreadsheet applications
http://www.bom.gov.au/fwo/IDQ60701/IDQ60701.94293.axf

JavaScript Object Notation format (JSON) in row-major order
http://www.bom.gov.au/fwo/IDQ60701/IDQ60701.94293.json